createdAt,value
2023-06-15T00:00:06.311Z,71.57
2023-06-15T00:00:38.801Z,71.70
2023-06-15T00:01:11.273Z,71.80
2023-06-15T00:01:43.755Z,71.70
2023-06-15T00:02:16.263Z,71.80
2023-06-15T00:02:48.988Z,71.91
2023-06-15T00:03:21.416Z,72.31
2023-06-15T00:03:53.724Z,72.72
2023-06-15T00:04:26.182Z,72.72
2023-06-15T00:04:58.607Z,72.72
2023-06-15T00:05:31.085Z,72.81
2023-06-15T00:06:03.577Z,72.81
2023-06-15T00:06:36.086Z,72.81
2023-06-15T00:07:15.605Z,72.72
2023-06-15T00:07:55.165Z,72.48
2023-06-15T00:08:34.696Z,72.28
2023-06-15T00:09:15.141Z,72.17
2023-06-15T00:09:54.616Z,72.01
2023-06-15T00:10:34.214Z,71.97
2023-06-15T00:11:13.720Z,72.41
2023-06-15T00:11:46.220Z,72.41
2023-06-15T00:12:18.775Z,72.41
2023-06-15T00:12:51.250Z,72.31
2023-06-15T00:13:23.682Z,72.31
2023-06-15T00:13:56.131Z,72.21
2023-06-15T00:14:28.568Z,72.51
2023-06-15T00:15:01.043Z,72.61
2023-06-15T00:15:33.616Z,72.95
2023-06-15T00:16:06.118Z,73.05
2023-06-15T00:16:38.491Z,72.95
2023-06-15T00:17:10.935Z,73.15
2023-06-15T00:17:43.730Z,73.25
2023-06-15T00:18:15.986Z,73.56
2023-06-15T00:18:48.513Z,73.66
2023-06-15T00:19:21.004Z,73.66
2023-06-15T00:19:53.521Z,73.96
2023-06-15T00:20:26.018Z,73.96
2023-06-15T00:20:58.521Z,74.00
2023-06-15T00:21:30.935Z,74.00
2023-06-15T00:22:03.436Z,73.90
2023-06-15T00:22:35.849Z,74.40
2023-06-15T00:23:08.325Z,74.30
2023-06-15T00:23:40.819Z,74.51
2023-06-15T00:24:13.365Z,74.71
2023-06-15T00:24:45.765Z,75.11
2023-06-15T00:25:18.421Z,75.31
2023-06-15T00:25:50.630Z,75.31
2023-06-15T00:26:23.117Z,75.31
2023-06-15T00:26:55.537Z,75.21
2023-06-15T00:27:28.013Z,75.21
2023-06-15T00:28:00.457Z,75.31
2023-06-15T00:28:32.977Z,75.31
2023-06-15T00:29:05.471Z,75.42
2023-06-15T00:29:37.925Z,75.52
2023-06-15T00:30:10.421Z,75.52
2023-06-15T00:30:42.884Z,75.62
2023-06-15T00:31:15.383Z,75.62
2023-06-15T00:31:47.885Z,75.65
2023-06-15T00:32:20.318Z,75.76
2023-06-15T00:32:52.798Z,75.76
2023-06-15T00:33:25.213Z,75.76
2023-06-15T00:33:57.654Z,75.65
2023-06-15T00:34:30.151Z,75.76
2023-06-15T00:35:02.663Z,75.65
2023-06-15T00:35:35.145Z,75.76
2023-06-15T00:36:07.681Z,75.65
2023-06-15T00:36:40.195Z,75.55
2023-06-15T00:37:12.625Z,75.55
2023-06-15T00:37:45.137Z,75.65
2023-06-15T00:38:17.590Z,75.85
2023-06-15T00:38:50.014Z,75.96
2023-06-15T00:39:22.445Z,76.36
2023-06-15T00:39:54.937Z,76.56
2023-06-15T00:40:27.468Z,76.46
2023-06-15T00:41:00.025Z,76.36
2023-06-15T00:41:32.561Z,76.36
2023-06-15T00:42:05.065Z,76.16
2023-06-15T00:42:37.590Z,76.16
2023-06-15T00:43:10.067Z,76.16
2023-06-15T00:43:42.570Z,76.36
2023-06-15T00:44:15.084Z,76.26
2023-06-15T00:44:47.546Z,76.56
2023-06-15T00:45:20.268Z,76.46
2023-06-15T00:45:52.540Z,76.36
2023-06-15T00:46:25.044Z,76.46
2023-06-15T00:46:57.519Z,76.56
2023-06-15T00:47:29.958Z,76.67
2023-06-15T00:48:02.566Z,76.56
2023-06-15T00:48:34.984Z,76.67
2023-06-15T00:49:07.539Z,76.77
2023-06-15T00:49:40.002Z,76.77
2023-06-15T00:50:12.514Z,76.77
2023-06-15T00:50:45.030Z,76.77
2023-06-15T00:51:17.438Z,76.77
2023-06-15T00:51:49.914Z,76.87
2023-06-15T00:52:22.389Z,76.97
2023-06-15T00:52:57.355Z,76.97
2023-06-15T00:53:27.389Z,76.97
2023-06-15T00:53:59.826Z,77.07
2023-06-15T00:54:32.287Z,77.07
2023-06-15T00:55:04.752Z,77.07
2023-06-15T00:55:37.209Z,76.97
2023-06-15T00:56:09.652Z,76.87
2023-06-15T00:56:42.128Z,76.97
2023-06-15T00:57:14.604Z,76.87
2023-06-15T00:57:47.095Z,76.97
2023-06-15T00:58:19.575Z,76.87
2023-06-15T00:58:52.077Z,76.87
2023-06-15T00:59:24.571Z,76.87
2023-06-15T00:59:57.039Z,76.87
2023-06-15T01:00:29.494Z,76.77
2023-06-15T01:01:01.945Z,76.67
2023-06-15T01:01:34.443Z,76.87
2023-06-15T01:02:06.787Z,77.07
2023-06-15T01:02:39.280Z,77.41
2023-06-15T01:03:11.719Z,77.61
2023-06-15T01:03:44.109Z,77.72
2023-06-15T01:04:16.551Z,77.82
2023-06-15T01:04:49.036Z,77.82
2023-06-15T01:05:21.474Z,77.61
2023-06-15T01:05:54.013Z,77.72
2023-06-15T01:06:26.334Z,77.92
2023-06-15T01:06:58.769Z,77.92
2023-06-15T01:07:31.190Z,77.72
2023-06-15T01:08:03.697Z,77.82
2023-06-15T01:08:36.155Z,77.82
2023-06-15T01:09:08.580Z,77.72
2023-06-15T01:09:41.009Z,77.61
2023-06-15T01:10:13.454Z,77.51
2023-06-15T01:10:45.921Z,77.82
2023-06-15T01:11:18.427Z,77.72
2023-06-15T01:11:50.916Z,77.65
2023-06-15T01:12:23.443Z,77.86
2023-06-15T01:12:56.190Z,78.16
2023-06-15T01:13:28.363Z,78.16
2023-06-15T01:14:00.851Z,78.26
2023-06-15T01:14:33.288Z,78.56
2023-06-15T01:15:05.730Z,78.46
2023-06-15T01:15:38.229Z,78.26
2023-06-15T01:16:10.730Z,78.36
2023-06-15T01:16:43.256Z,78.46
2023-06-15T01:17:15.739Z,78.36
2023-06-15T01:17:48.172Z,78.46
2023-06-15T01:18:20.615Z,78.36
2023-06-15T01:18:53.108Z,78.46
2023-06-15T01:19:25.532Z,78.56
2023-06-15T01:19:57.958Z,78.66
2023-06-15T01:20:30.441Z,78.60
2023-06-15T01:21:02.904Z,78.66
2023-06-15T01:21:35.405Z,78.70
2023-06-15T01:22:07.859Z,78.91
2023-06-15T01:22:40.285Z,78.91
2023-06-15T01:23:12.777Z,78.91
2023-06-15T01:23:45.296Z,78.91
2023-06-15T01:24:17.685Z,78.70
2023-06-15T01:24:50.122Z,78.60
2023-06-15T01:25:22.613Z,78.70
2023-06-15T01:25:55.038Z,79.00
2023-06-15T01:26:27.444Z,79.00
2023-06-15T01:26:59.896Z,79.00
2023-06-15T01:27:32.325Z,79.11
2023-06-15T01:28:04.787Z,79.11
2023-06-15T01:28:37.212Z,79.41
2023-06-15T01:29:09.646Z,79.51
2023-06-15T01:29:42.146Z,79.31
2023-06-15T01:30:14.633Z,79.11
2023-06-15T01:30:47.218Z,79.11
2023-06-15T01:31:19.638Z,78.91
2023-06-15T01:31:52.174Z,79.00
2023-06-15T01:32:24.607Z,79.00
2023-06-15T01:32:57.116Z,79.11
2023-06-15T01:33:29.495Z,79.00
2023-06-15T01:34:01.980Z,78.91
2023-06-15T01:34:34.373Z,79.21
2023-06-15T01:35:06.797Z,79.41
2023-06-15T01:35:39.296Z,79.41
2023-06-15T01:36:11.762Z,79.41
2023-06-15T01:36:44.262Z,79.45
2023-06-15T01:37:16.761Z,79.65
2023-06-15T01:37:49.265Z,79.65
2023-06-15T01:38:21.700Z,79.65
2023-06-15T01:38:54.206Z,79.55
2023-06-15T01:39:26.680Z,79.65
2023-06-15T01:39:59.169Z,79.85
2023-06-15T01:40:31.671Z,79.85
2023-06-15T01:41:04.171Z,79.85
2023-06-15T01:41:36.652Z,80.06
2023-06-15T01:42:09.099Z,80.06
2023-06-15T01:42:41.534Z,80.26
2023-06-15T01:43:13.957Z,80.16
2023-06-15T01:43:46.406Z,80.26
2023-06-15T01:44:18.841Z,80.16
2023-06-15T01:44:51.382Z,80.36
2023-06-15T01:45:23.893Z,80.46
2023-06-15T01:45:56.342Z,80.46
2023-06-15T01:46:28.861Z,80.36
2023-06-15T01:47:01.304Z,80.16
2023-06-15T01:47:33.747Z,80.06
2023-06-15T01:48:06.165Z,79.96
2023-06-15T01:48:38.655Z,79.96
2023-06-15T01:49:11.155Z,79.85
2023-06-15T01:49:43.611Z,79.96
2023-06-15T01:50:16.063Z,79.96
2023-06-15T01:50:48.528Z,80.26
2023-06-15T01:51:21.027Z,80.16
2023-06-15T01:51:53.537Z,79.96
2023-06-15T01:52:26.040Z,80.46
2023-06-15T01:52:58.483Z,80.57
2023-06-15T01:53:30.928Z,80.46
2023-06-15T01:54:03.431Z,80.46
2023-06-15T01:54:35.924Z,80.36
2023-06-15T01:55:08.442Z,80.46
2023-06-15T01:55:40.877Z,80.46
2023-06-15T01:56:13.332Z,80.50
2023-06-15T01:56:45.839Z,80.40
2023-06-15T01:57:18.320Z,80.40
2023-06-15T01:57:50.828Z,80.50
2023-06-15T01:58:23.320Z,80.50
2023-06-15T01:58:55.820Z,80.60
2023-06-15T01:59:28.288Z,80.60
2023-06-15T02:00:00.810Z,80.60
2023-06-15T02:00:33.317Z,80.91
2023-06-15T02:01:05.839Z,80.91
2023-06-15T02:01:38.329Z,80.80
2023-06-15T02:02:10.784Z,80.80
2023-06-15T02:02:43.233Z,80.91
2023-06-15T02:03:15.664Z,80.91
2023-06-15T02:03:48.096Z,80.91
2023-06-15T02:04:20.583Z,81.11
2023-06-15T02:04:53.067Z,81.11
2023-06-15T02:05:25.521Z,81.01
2023-06-15T02:05:57.967Z,80.80
2023-06-15T02:06:30.426Z,80.80
2023-06-15T02:07:02.864Z,80.91
2023-06-15T02:07:35.302Z,80.91
2023-06-15T02:08:07.858Z,81.15
2023-06-15T02:08:40.369Z,81.35
2023-06-15T02:09:12.850Z,81.35
2023-06-15T02:09:45.364Z,81.35
2023-06-15T02:10:17.866Z,81.45
2023-06-15T02:10:50.373Z,81.35
2023-06-15T02:11:22.865Z,81.45
2023-06-15T02:11:55.369Z,81.66
2023-06-15T02:12:27.790Z,81.76
2023-06-15T02:13:00.288Z,81.66
2023-06-15T02:13:32.793Z,81.96
2023-06-15T02:14:05.290Z,81.86
2023-06-15T02:14:37.795Z,81.86
2023-06-15T02:15:10.238Z,81.86
2023-06-15T02:15:42.657Z,81.76
2023-06-15T02:16:15.102Z,81.96
2023-06-15T02:16:49.422Z,82.17
2023-06-15T02:17:20.085Z,81.96
2023-06-15T02:17:52.609Z,81.62
2023-06-15T02:18:25.097Z,81.56
2023-06-15T02:18:57.599Z,81.56
2023-06-15T02:19:30.066Z,81.45
2023-06-15T02:20:02.571Z,81.56
2023-06-15T02:20:35.277Z,81.56
2023-06-15T02:21:07.608Z,81.35
2023-06-15T02:21:40.095Z,81.76
2023-06-15T02:22:12.541Z,81.56
2023-06-15T02:22:44.979Z,81.66
2023-06-15T02:23:17.505Z,81.45
2023-06-15T02:23:50.068Z,81.45
2023-06-15T02:24:22.504Z,81.25
2023-06-15T02:24:54.922Z,81.25
2023-06-15T02:25:27.352Z,81.25
2023-06-15T02:25:59.823Z,81.35
2023-06-15T02:26:32.300Z,81.35
2023-06-15T02:27:04.778Z,81.35
2023-06-15T02:27:37.264Z,81.25
2023-06-15T02:28:09.754Z,81.49
2023-06-15T02:28:42.266Z,81.39
2023-06-15T02:29:14.693Z,81.59
2023-06-15T02:29:47.187Z,81.79
2023-06-15T02:30:19.635Z,81.90
2023-06-15T02:30:52.072Z,82.10
2023-06-15T02:31:24.509Z,82.20
2023-06-15T02:31:56.968Z,82.00
2023-06-15T02:32:29.504Z,81.90
2023-06-15T02:33:01.973Z,81.79
2023-06-15T02:33:34.399Z,81.79
2023-06-15T02:34:06.924Z,81.90
2023-06-15T02:34:39.418Z,81.79
2023-06-15T02:35:11.878Z,81.90
2023-06-15T02:35:44.304Z,82.00
2023-06-15T02:36:16.774Z,81.90
2023-06-15T02:36:49.210Z,82.00
2023-06-15T02:37:21.684Z,82.00
2023-06-15T02:37:54.128Z,82.00
2023-06-15T02:38:26.686Z,81.79
2023-06-15T02:38:59.173Z,82.00
2023-06-15T02:39:31.661Z,82.00
2023-06-15T02:40:04.109Z,82.00
2023-06-15T02:40:36.617Z,82.10
2023-06-15T02:41:09.126Z,82.10
2023-06-15T02:41:41.620Z,82.20
2023-06-15T02:42:14.079Z,82.10
2023-06-15T02:42:46.532Z,82.10
2023-06-15T02:43:19.039Z,82.10
2023-06-15T02:43:51.504Z,82.31
2023-06-15T02:44:24.089Z,82.34
2023-06-15T02:44:56.545Z,82.24
2023-06-15T02:45:28.997Z,82.24
2023-06-15T02:46:01.450Z,82.34
2023-06-15T02:46:33.901Z,82.34
2023-06-15T02:47:06.423Z,82.45
2023-06-15T02:47:39.073Z,82.65
2023-06-15T02:48:11.522Z,82.65
2023-06-15T02:48:44.014Z,82.85
2023-06-15T02:49:16.513Z,82.95
2023-06-15T02:49:49.005Z,83.06
2023-06-15T02:50:21.504Z,83.06
2023-06-15T02:50:53.996Z,83.15
2023-06-15T02:51:26.477Z,83.36
2023-06-15T02:51:58.993Z,83.26
2023-06-15T02:52:31.464Z,83.26
2023-06-15T02:53:03.905Z,83.26
2023-06-15T02:53:36.389Z,83.12
2023-06-15T02:54:15.907Z,83.01
2023-06-15T02:54:56.283Z,82.92
2023-06-15T02:55:35.851Z,82.81
2023-06-15T02:56:15.385Z,82.51
2023-06-15T02:56:54.955Z,82.20
2023-06-15T02:57:34.424Z,82.20
2023-06-15T02:58:13.916Z,82.10
2023-06-15T02:58:46.374Z,82.20
2023-06-15T02:59:18.865Z,82.51
2023-06-15T02:59:51.311Z,82.51
2023-06-15T03:00:23.757Z,82.31
2023-06-15T03:00:56.232Z,82.40
2023-06-15T03:01:28.725Z,82.40
2023-06-15T03:02:01.227Z,82.51
2023-06-15T03:02:33.804Z,82.61
2023-06-15T03:03:06.254Z,82.61
2023-06-15T03:03:38.651Z,82.61
2023-06-15T03:04:11.409Z,82.51
2023-06-15T03:04:43.695Z,82.81
2023-06-15T03:05:16.452Z,82.61
2023-06-15T03:05:48.729Z,82.51
2023-06-15T03:06:21.240Z,82.31
2023-06-15T03:06:53.767Z,82.20
2023-06-15T03:07:26.256Z,82.51
2023-06-15T03:07:58.702Z,82.61
2023-06-15T03:08:31.124Z,82.51
2023-06-15T03:09:03.608Z,82.61
2023-06-15T03:09:36.107Z,82.51
2023-06-15T03:10:08.610Z,82.40
2023-06-15T03:10:41.059Z,82.31
2023-06-15T03:11:13.512Z,82.31
2023-06-15T03:11:46.056Z,82.31
2023-06-15T03:12:18.518Z,82.31
2023-06-15T03:12:51.021Z,82.31
2023-06-15T03:13:23.521Z,82.20
2023-06-15T03:13:55.997Z,82.20
2023-06-15T03:14:28.472Z,82.20
2023-06-15T03:15:00.942Z,82.10
2023-06-15T03:15:33.419Z,82.31
2023-06-15T03:16:05.845Z,82.61
2023-06-15T03:16:38.295Z,82.61
2023-06-15T03:17:10.788Z,82.81
2023-06-15T03:17:43.352Z,82.71
2023-06-15T03:18:15.840Z,82.71
2023-06-15T03:18:48.257Z,82.71
2023-06-15T03:19:20.710Z,82.61
2023-06-15T03:19:53.166Z,82.61
2023-06-15T03:20:25.588Z,82.65
2023-06-15T03:20:58.119Z,82.61
2023-06-15T03:21:30.713Z,82.85
2023-06-15T03:22:03.139Z,82.81
2023-06-15T03:22:35.681Z,82.95
2023-06-15T03:23:09.615Z,82.85
2023-06-15T03:23:40.621Z,82.75
2023-06-15T03:24:13.080Z,82.65
2023-06-15T03:24:45.809Z,82.65
2023-06-15T03:25:18.213Z,82.65
2023-06-15T03:25:50.514Z,82.65
2023-06-15T03:26:23.005Z,82.54
2023-06-15T03:26:55.513Z,82.65
2023-06-15T03:27:27.953Z,82.85
2023-06-15T03:28:00.411Z,82.95
2023-06-15T03:28:32.906Z,82.95
2023-06-15T03:29:05.393Z,82.85
2023-06-15T03:29:37.936Z,82.85
2023-06-15T03:30:10.357Z,82.75
2023-06-15T03:30:42.888Z,82.75
2023-06-15T03:31:15.305Z,82.75
2023-06-15T03:31:47.733Z,82.85
2023-06-15T03:32:20.266Z,82.75
2023-06-15T03:32:52.801Z,82.85
2023-06-15T03:33:25.240Z,82.95
2023-06-15T03:33:57.702Z,82.85
2023-06-15T03:34:30.153Z,82.75
2023-06-15T03:35:02.653Z,82.95
2023-06-15T03:35:35.153Z,82.95
2023-06-15T03:36:07.658Z,82.81
2023-06-15T03:36:40.212Z,82.75
2023-06-15T03:37:12.649Z,82.65
2023-06-15T03:37:45.095Z,82.65
2023-06-15T03:38:17.544Z,82.61
2023-06-15T03:38:50.003Z,82.51
2023-06-15T03:39:22.435Z,82.51
2023-06-15T03:39:54.963Z,82.31
2023-06-15T03:40:27.468Z,82.20
2023-06-15T03:40:59.972Z,82.20
2023-06-15T03:41:32.427Z,82.20
2023-06-15T03:42:04.838Z,82.20
2023-06-15T03:42:37.370Z,82.20
2023-06-15T03:43:09.846Z,82.10
2023-06-15T03:43:42.269Z,82.00
2023-06-15T03:44:14.755Z,82.00
2023-06-15T03:44:47.265Z,82.00
2023-06-15T03:45:19.882Z,82.20
2023-06-15T03:45:52.181Z,82.10
2023-06-15T03:46:24.693Z,82.20
2023-06-15T03:46:57.783Z,82.20
2023-06-15T03:47:30.286Z,82.10
2023-06-15T03:48:02.813Z,82.00
2023-06-15T03:48:35.182Z,82.00
2023-06-15T03:49:07.613Z,82.00
2023-06-15T03:49:40.027Z,82.00
2023-06-15T03:50:12.571Z,81.90
2023-06-15T03:50:45.029Z,81.90
2023-06-15T03:51:17.555Z,81.90
2023-06-15T03:51:50.076Z,81.90
2023-06-15T03:52:22.520Z,81.79
2023-06-15T03:52:54.981Z,81.90
2023-06-15T03:53:27.382Z,81.79
2023-06-15T03:53:59.817Z,81.79
2023-06-15T03:54:32.266Z,81.79
2023-06-15T03:55:04.694Z,81.79
2023-06-15T03:55:37.170Z,81.70
2023-06-15T03:56:09.637Z,81.70
2023-06-15T03:56:42.081Z,81.66
2023-06-15T03:57:14.500Z,81.59
2023-06-15T03:57:46.988Z,81.66
2023-06-15T03:58:19.471Z,81.56
2023-06-15T03:58:51.968Z,81.56
2023-06-15T03:59:24.458Z,81.45
2023-06-15T03:59:56.932Z,81.45
2023-06-15T04:00:29.378Z,81.35
2023-06-15T04:01:01.795Z,81.35
2023-06-15T04:01:34.303Z,81.25
2023-06-15T04:02:06.801Z,81.25
2023-06-15T04:02:39.344Z,81.25
2023-06-15T04:03:11.875Z,81.15
2023-06-15T04:03:44.322Z,81.15
2023-06-15T04:04:16.970Z,81.15
2023-06-15T04:04:49.221Z,81.15
2023-06-15T04:05:21.657Z,80.91
2023-06-15T04:05:54.157Z,80.71
2023-06-15T04:06:26.595Z,80.80
2023-06-15T04:06:59.049Z,80.60
2023-06-15T04:07:31.465Z,80.60
2023-06-15T04:08:03.954Z,80.71
2023-06-15T04:08:36.481Z,80.60
2023-06-15T04:09:08.974Z,80.50
2023-06-15T04:09:41.452Z,80.50
2023-06-15T04:10:13.931Z,80.60
2023-06-15T04:10:46.372Z,80.50
2023-06-15T04:11:18.935Z,80.40
2023-06-15T04:11:51.356Z,80.30
2023-06-15T04:12:23.777Z,80.30
2023-06-15T04:12:56.225Z,80.30
2023-06-15T04:13:28.661Z,80.30
2023-06-15T04:14:01.076Z,79.96
2023-06-15T04:14:33.529Z,79.75
2023-06-15T04:15:05.946Z,79.85
2023-06-15T04:15:38.381Z,79.75
2023-06-15T04:16:10.801Z,79.75
2023-06-15T04:16:43.280Z,79.75
2023-06-15T04:17:15.689Z,79.75
2023-06-15T04:17:48.166Z,79.75
2023-06-15T04:18:20.552Z,79.75
2023-06-15T04:18:53.054Z,79.75
2023-06-15T04:19:25.540Z,79.65
2023-06-15T04:19:58.049Z,79.55
2023-06-15T04:20:30.465Z,79.55
2023-06-15T04:21:02.908Z,79.55
2023-06-15T04:21:35.344Z,79.45
2023-06-15T04:22:07.779Z,79.45
2023-06-15T04:22:40.232Z,79.35
2023-06-15T04:23:12.742Z,79.14
2023-06-15T04:23:45.282Z,79.04
2023-06-15T04:24:17.655Z,78.94
2023-06-15T04:24:50.031Z,79.14
2023-06-15T04:25:22.503Z,79.14
2023-06-15T04:25:54.991Z,79.14
2023-06-15T04:26:27.464Z,79.04
2023-06-15T04:26:59.949Z,78.91
2023-06-15T04:27:32.466Z,78.91
2023-06-15T04:28:04.869Z,79.00
2023-06-15T04:28:37.318Z,78.91
2023-06-15T04:29:09.836Z,78.91
2023-06-15T04:29:42.297Z,78.80
2023-06-15T04:30:14.719Z,78.80
2023-06-15T04:30:47.137Z,78.80
2023-06-15T04:31:19.557Z,78.60
2023-06-15T04:31:52.001Z,78.60
2023-06-15T04:32:24.478Z,78.70
2023-06-15T04:32:56.938Z,78.50
2023-06-15T04:33:29.355Z,78.36
2023-06-15T04:34:01.853Z,78.26
2023-06-15T04:34:34.312Z,78.16
2023-06-15T04:35:06.786Z,77.95
2023-06-15T04:35:39.196Z,77.86
2023-06-15T04:36:11.608Z,77.65
2023-06-15T04:36:44.093Z,77.34
2023-06-15T04:37:16.496Z,77.34
2023-06-15T04:37:48.929Z,77.34
2023-06-15T04:38:21.419Z,77.25
2023-06-15T04:38:53.890Z,77.14
2023-06-15T04:39:26.368Z,77.14
2023-06-15T04:39:58.837Z,77.11
2023-06-15T04:40:31.250Z,77.11
2023-06-15T04:41:03.676Z,77.11
2023-06-15T04:41:36.203Z,77.11
2023-06-15T04:42:08.678Z,76.90
2023-06-15T04:42:41.102Z,76.70
2023-06-15T04:43:13.581Z,76.60
2023-06-15T04:43:46.052Z,76.67
2023-06-15T04:44:18.545Z,76.56
2023-06-15T04:44:51.039Z,76.46
2023-06-15T04:45:23.533Z,76.36
2023-06-15T04:45:56.012Z,75.85
2023-06-15T04:46:28.510Z,75.65
2023-06-15T04:47:00.991Z,75.85
2023-06-15T04:47:33.457Z,75.82
2023-06-15T04:48:06.003Z,75.31
2023-06-15T04:48:38.306Z,75.21
2023-06-15T04:49:10.907Z,74.60
2023-06-15T04:49:43.358Z,74.00
2023-06-15T04:50:15.828Z,73.76
2023-06-15T04:50:48.367Z,73.96
2023-06-15T04:51:21.475Z,73.86
2023-06-15T04:51:53.948Z,73.66
2023-06-15T04:52:26.348Z,73.63
2023-06-15T04:52:58.849Z,73.43
2023-06-15T04:53:31.339Z,73.12
2023-06-15T04:54:03.865Z,72.78
2023-06-15T04:54:36.292Z,72.38
2023-06-15T04:55:08.764Z,71.44
2023-06-15T04:55:41.260Z,71.23
2023-06-15T04:56:13.821Z,70.79
2023-06-15T04:56:46.302Z,70.36
2023-06-15T04:57:18.810Z,69.72
2023-06-15T04:57:51.253Z,69.08
2023-06-15T04:58:23.709Z,68.24
2023-06-15T04:58:56.135Z,66.90
2023-06-15T04:59:28.700Z,65.86
2023-06-15T05:00:01.140Z,64.95
2023-06-15T05:00:33.985Z,64.32
2023-06-15T05:01:06.068Z,63.28
2023-06-15T05:01:38.618Z,62.65
2023-06-15T05:02:11.137Z,62.35
2023-06-15T05:02:43.701Z,62.22
2023-06-15T05:03:16.175Z,61.18
2023-06-15T05:03:48.537Z,60.75
2023-06-15T05:04:21.011Z,60.65
2023-06-15T05:04:53.527Z,60.32
2023-06-15T05:05:26.037Z,59.49
2023-06-15T05:05:58.562Z,58.66
2023-06-15T05:06:31.100Z,58.03
2023-06-15T05:07:03.573Z,57.70
2023-06-15T05:07:36.015Z,57.37
2023-06-15T05:08:08.532Z,56.85
2023-06-15T05:08:41.108Z,56.24
2023-06-15T05:09:13.612Z,55.32
2023-06-15T05:09:47.170Z,55.22
2023-06-15T05:10:20.862Z,54.79
2023-06-15T05:10:52.249Z,54.37
2023-06-15T05:11:24.800Z,53.97
2023-06-15T05:11:57.326Z,53.84
2023-06-15T05:12:29.815Z,53.54
2023-06-15T05:13:02.344Z,52.94
2023-06-15T05:13:34.850Z,52.42
2023-06-15T05:14:07.425Z,52.55
2023-06-15T05:14:39.940Z,52.72
2023-06-15T05:15:12.401Z,52.32
2023-06-15T05:15:45.592Z,52.55
2023-06-15T05:16:18.133Z,52.84
2023-06-15T05:16:50.594Z,52.64
2023-06-15T05:17:23.088Z,52.97
2023-06-15T05:17:55.573Z,53.44
2023-06-15T05:18:27.942Z,53.14
2023-06-15T05:19:00.462Z,53.07
2023-06-15T05:19:33.058Z,53.27
2023-06-15T05:20:05.602Z,53.14
2023-06-15T05:20:38.057Z,53.04
2023-06-15T05:21:11.822Z,52.62
2023-06-15T05:21:42.971Z,52.09
2023-06-15T05:22:15.465Z,51.67
2023-06-15T05:22:47.984Z,51.15
2023-06-15T05:23:20.677Z,50.62
2023-06-15T05:23:53.219Z,49.60
2023-06-15T05:24:25.663Z,49.93
2023-06-15T05:24:58.138Z,49.95
2023-06-15T05:25:38.094Z,50.47
2023-06-15T05:26:28.941Z,51.57
2023-06-15T05:26:48.655Z,51.37
2023-06-15T05:27:21.128Z,50.55
2023-06-15T05:27:53.635Z,50.35
2023-06-15T05:28:27.563Z,50.55
2023-06-15T05:28:58.596Z,50.43
2023-06-15T05:29:31.057Z,50.02
2023-06-15T05:30:03.497Z,49.80
2023-06-15T05:30:35.967Z,48.88
2023-06-15T05:31:08.460Z,48.68
2023-06-15T05:31:40.961Z,48.58
2023-06-15T05:32:13.428Z,48.68
2023-06-15T05:32:45.951Z,48.58
2023-06-15T05:33:18.358Z,47.86
2023-06-15T05:33:50.848Z,48.36
2023-06-15T05:34:23.327Z,48.46
2023-06-15T05:34:55.995Z,48.04
2023-06-15T05:35:28.471Z,47.62
2023-06-15T05:36:06.749Z,47.20
2023-06-15T05:36:47.047Z,46.38
2023-06-15T05:37:05.995Z,45.76
2023-06-15T05:37:38.517Z,45.45
2023-06-15T05:38:11.033Z,44.55
2023-06-15T05:38:43.540Z,44.87
2023-06-15T05:39:16.038Z,45.29
2023-06-15T05:39:48.508Z,45.56
2023-06-15T05:40:20.970Z,45.19
2023-06-15T05:40:53.497Z,45.49
2023-06-15T05:41:25.975Z,45.68
2023-06-15T05:41:58.430Z,45.56
2023-06-15T05:42:30.881Z,45.37
2023-06-15T05:43:03.328Z,45.05
2023-06-15T05:43:35.844Z,44.55
2023-06-15T05:44:08.376Z,44.57
2023-06-15T05:44:40.922Z,44.87
2023-06-15T05:45:15.102Z,45.19
2023-06-15T05:45:50.599Z,45.56
2023-06-15T05:46:18.456Z,45.37
2023-06-15T05:46:50.891Z,45.47
2023-06-15T05:47:23.368Z,45.15
2023-06-15T05:48:02.897Z,45.15
2023-06-15T05:48:42.901Z,45.05
2023-06-15T05:49:15.361Z,44.63
2023-06-15T05:49:47.794Z,44.41
2023-06-15T05:50:20.266Z,43.79
2023-06-15T05:50:52.718Z,43.77
2023-06-15T05:51:25.143Z,42.96
2023-06-15T05:51:57.593Z,42.96
2023-06-15T05:52:30.510Z,42.96
2023-06-15T05:53:02.501Z,42.84
2023-06-15T05:53:34.923Z,42.44
2023-06-15T05:54:07.420Z,42.01
2023-06-15T05:54:39.901Z,41.69
2023-06-15T05:55:12.332Z,41.08
2023-06-15T05:55:44.787Z,40.37
2023-06-15T05:56:17.306Z,40.25
2023-06-15T05:56:49.712Z,39.86
2023-06-15T05:57:22.202Z,39.44
2023-06-15T05:57:54.670Z,39.23
2023-06-15T05:58:27.140Z,38.24
2023-06-15T05:58:59.575Z,38.43
2023-06-15T05:59:34.194Z,38.56
2023-06-15T06:00:04.519Z,38.87
2023-06-15T06:00:37.053Z,39.48
2023-06-15T06:01:10.154Z,40.21
2023-06-15T06:01:42.618Z,40.82
2023-06-15T06:02:15.869Z,40.82
2023-06-15T06:02:48.378Z,41.10
2023-06-15T06:03:27.989Z,40.70
2023-06-15T06:04:00.436Z,42.29
2023-06-15T06:04:32.871Z,41.99
2023-06-15T06:05:05.352Z,41.79
2023-06-15T06:05:37.867Z,41.00
2023-06-15T06:06:10.367Z,41.99
2023-06-15T06:06:42.902Z,40.80
2023-06-15T06:07:15.337Z,41.10
2023-06-15T06:07:47.823Z,40.41
2023-06-15T06:08:20.309Z,40.58
2023-06-15T06:08:52.838Z,39.87
2023-06-15T06:09:25.304Z,39.46
2023-06-15T06:09:57.754Z,39.44
2023-06-15T06:10:30.268Z,38.93
2023-06-15T06:11:02.770Z,38.42
2023-06-15T06:11:35.242Z,37.83
2023-06-15T06:12:07.701Z,38.04
2023-06-15T06:12:40.201Z,38.37
2023-06-15T06:13:12.658Z,39.00
2023-06-15T06:13:45.091Z,39.91
2023-06-15T06:14:17.658Z,40.74
2023-06-15T06:14:50.142Z,41.46
2023-06-15T06:15:22.951Z,41.55
2023-06-15T06:15:55.137Z,42.13
2023-06-15T06:16:27.620Z,41.63
2023-06-15T06:17:00.122Z,41.39
2023-06-15T06:17:49.448Z,40.48
2023-06-15T06:18:08.994Z,40.21
2023-06-15T06:18:37.659Z,40.80
2023-06-15T06:19:10.145Z,40.80
2023-06-15T06:19:42.641Z,41.00
2023-06-15T06:20:15.129Z,41.00
2023-06-15T06:20:47.572Z,40.11
2023-06-15T06:21:19.992Z,40.29
2023-06-15T06:21:52.421Z,41.25
2023-06-15T06:22:24.843Z,40.76
2023-06-15T06:22:57.268Z,39.48
2023-06-15T06:23:29.726Z,39.97
2023-06-15T06:24:02.203Z,39.95
2023-06-15T06:24:34.723Z,39.46
2023-06-15T06:25:07.188Z,39.46
2023-06-15T06:25:39.698Z,39.78
2023-06-15T06:26:12.141Z,40.19
2023-06-15T06:26:44.570Z,40.39
2023-06-15T06:27:17.035Z,40.29
2023-06-15T06:27:49.523Z,40.61
2023-06-15T06:28:22.013Z,41.20
2023-06-15T06:28:54.513Z,41.49
2023-06-15T06:29:26.989Z,40.70
2023-06-15T06:29:59.491Z,40.48
2023-06-15T06:30:32.013Z,40.58
2023-06-15T06:31:04.495Z,40.37
2023-06-15T06:31:36.977Z,40.15
2023-06-15T06:32:09.433Z,39.32
2023-06-15T06:32:41.871Z,38.20
2023-06-15T06:33:14.419Z,38.18
2023-06-15T06:33:46.767Z,37.87
2023-06-15T06:34:19.313Z,37.15
2023-06-15T06:34:51.791Z,36.54
2023-06-15T06:35:24.298Z,36.16
2023-06-15T06:35:56.760Z,36.77
2023-06-15T06:36:29.249Z,36.88
2023-06-15T06:37:01.877Z,37.40
2023-06-15T06:37:34.131Z,38.09
2023-06-15T06:38:06.633Z,37.99
2023-06-15T06:38:46.293Z,37.20
2023-06-15T06:39:11.650Z,37.22
2023-06-15T06:39:44.199Z,37.73
2023-06-15T06:40:16.675Z,37.93
2023-06-15T06:40:49.166Z,37.91
2023-06-15T06:41:21.688Z,37.40
2023-06-15T06:41:54.121Z,36.77
2023-06-15T06:42:26.573Z,36.36
2023-06-15T06:42:59.014Z,36.22
2023-06-15T06:43:31.490Z,35.13
2023-06-15T06:44:03.981Z,35.31
2023-06-15T06:44:36.478Z,34.31
2023-06-15T06:45:09.004Z,34.28
2023-06-15T06:45:41.432Z,33.67
2023-06-15T06:46:13.927Z,33.09
2023-06-15T06:46:46.398Z,32.90
2023-06-15T06:47:18.935Z,33.39
2023-06-15T06:47:51.508Z,33.29
2023-06-15T06:48:23.981Z,32.89
2023-06-15T06:48:56.462Z,32.79
2023-06-15T06:49:28.905Z,32.90
2023-06-15T06:50:01.394Z,33.51
2023-06-15T06:50:33.898Z,34.21
2023-06-15T06:51:08.397Z,34.41
2023-06-15T06:51:38.764Z,34.21
2023-06-15T06:52:11.196Z,34.23
2023-06-15T06:52:43.848Z,34.44
2023-06-15T06:53:16.070Z,35.16
2023-06-15T06:53:48.562Z,35.57
2023-06-15T06:54:21.084Z,35.36
2023-06-15T06:54:53.588Z,34.95
2023-06-15T06:55:26.084Z,34.83
2023-06-15T06:55:58.600Z,34.42
2023-06-15T06:56:31.136Z,34.51
2023-06-15T06:57:03.669Z,34.08
2023-06-15T06:57:36.141Z,33.67
2023-06-15T06:58:08.590Z,33.25
2023-06-15T06:58:41.039Z,32.84
2023-06-15T06:59:13.472Z,32.32
2023-06-15T06:59:45.945Z,31.92
2023-06-15T07:00:18.427Z,31.59